createdAt,value
2023-02-09T00:02:41.524Z,26.58
2023-02-09T00:05:43.970Z,24.95
2023-02-09T00:08:45.699Z,24.07
2023-02-09T00:12:11.690Z,19.87
2023-02-09T00:15:14.782Z,23.30
2023-02-09T00:18:16.173Z,21.50
2023-02-09T00:21:18.617Z,25.52
2023-02-09T00:24:19.913Z,23.97
2023-02-09T00:27:22.412Z,22.30
2023-02-09T00:30:25.521Z,22.35
2023-02-09T00:33:27.154Z,24.52
2023-02-09T00:36:29.875Z,25.85
2023-02-09T00:39:31.258Z,20.90
2023-02-09T00:42:33.700Z,22.13
2023-02-09T00:45:36.911Z,23.67
2023-02-09T00:48:38.234Z,22.90
2023-02-09T00:51:40.616Z,27.42
2023-02-09T00:54:41.929Z,25.10
2023-02-09T00:57:44.383Z,24.37
2023-02-09T01:00:47.662Z,22.25
2023-02-09T01:03:49.122Z,20.60
2023-02-09T01:06:51.543Z,23.08
2023-02-09T01:09:52.817Z,20.07
2023-02-09T01:12:55.250Z,24.70
2023-02-09T01:15:58.325Z,25.38
2023-02-09T01:19:01.001Z,25.45
2023-02-09T01:22:04.106Z,24.33
2023-02-09T01:25:07.090Z,23.00
2023-02-09T01:28:09.525Z,23.13
2023-02-09T01:31:21.342Z,22.73
2023-02-09T01:34:24.018Z,23.65
2023-02-09T01:37:25.336Z,21.17
2023-02-09T01:40:27.771Z,22.00
2023-02-09T01:43:30.192Z,20.23
2023-02-09T01:46:33.763Z,24.08
2023-02-09T01:49:36.261Z,20.70
2023-02-09T01:52:39.302Z,21.50
2023-02-09T01:55:46.533Z,21.43
2023-02-09T01:58:49.209Z,20.57
2023-02-09T02:01:52.524Z,21.17
2023-02-09T02:04:55.041Z,22.83
2023-02-09T02:08:04.089Z,21.73
2023-02-09T02:11:05.804Z,22.30
2023-02-09T02:14:08.222Z,23.20
2023-02-09T02:17:20.173Z,23.52
2023-02-09T02:21:03.328Z,23.77
2023-02-09T02:24:24.437Z,23.95
2023-02-09T02:27:32.288Z,22.13
2023-02-09T02:30:52.721Z,25.30
2023-02-09T02:34:02.906Z,23.08
2023-02-09T02:37:16.775Z,20.80
2023-02-09T02:40:29.627Z,20.25
2023-02-09T02:43:42.437Z,21.97
2023-02-09T02:46:47.515Z,24.23
2023-02-09T02:49:54.390Z,22.33
2023-02-09T02:53:00.363Z,26.75
2023-02-09T02:56:07.088Z,20.95
2023-02-09T02:59:15.001Z,21.20
2023-02-09T03:02:19.781Z,21.93
2023-02-09T03:05:24.663Z,18.95
2023-02-09T03:11:51.473Z,20.00
2023-02-09T03:15:13.694Z,22.23
2023-02-09T03:18:27.327Z,21.70
2023-02-09T03:21:39.721Z,19.45
2023-02-09T03:24:47.219Z,23.58
2023-02-09T03:27:54.947Z,22.65
2023-02-09T03:30:59.574Z,21.90
2023-02-09T03:34:02.920Z,21.27
2023-02-09T03:37:04.865Z,21.35
2023-02-09T03:43:43.499Z,20.80
2023-02-09T03:46:44.787Z,29.13
2023-02-09T03:49:46.149Z,21.93
2023-02-09T03:52:48.071Z,20.05
2023-02-09T03:55:50.630Z,19.48
2023-02-09T03:58:52.209Z,21.45
2023-02-09T04:01:56.156Z,21.43
2023-02-09T04:04:58.648Z,20.73
2023-02-09T04:08:00.705Z,22.67
2023-02-09T04:11:03.285Z,21.67
2023-02-09T04:14:05.494Z,18.55
2023-02-09T04:17:08.084Z,21.37
2023-02-09T04:20:10.088Z,22.77
2023-02-09T04:23:13.318Z,21.23
2023-02-09T04:26:16.377Z,22.23
2023-02-09T04:29:17.664Z,22.00
2023-02-09T04:35:39.922Z,22.03
2023-02-09T04:38:43.213Z,21.00
2023-02-09T04:41:45.800Z,21.90
2023-02-09T04:44:47.090Z,20.17
2023-02-09T04:47:49.611Z,23.60
2023-02-09T04:50:53.028Z,21.23
2023-02-09T04:53:54.916Z,19.48
2023-02-09T04:57:12.018Z,23.60
2023-02-09T05:00:14.103Z,19.63
2023-02-09T05:03:16.971Z,20.47
2023-02-09T05:06:18.684Z,18.47
2023-02-09T05:09:21.934Z,21.60
2023-02-09T05:12:24.463Z,20.60
2023-02-09T05:15:25.800Z,20.23
2023-02-09T05:18:28.360Z,21.17
2023-02-09T05:21:29.628Z,19.33
2023-02-09T05:24:32.873Z,18.33
2023-02-09T05:27:35.391Z,21.52
2023-02-09T05:30:37.002Z,19.00
2023-02-09T05:33:39.556Z,21.73
2023-02-09T05:36:40.836Z,21.07
2023-02-09T05:39:43.986Z,20.40
2023-02-09T05:42:46.578Z,20.00
2023-02-09T05:45:47.901Z,21.38
2023-02-09T05:48:50.537Z,21.73
2023-02-09T05:51:51.803Z,21.57
2023-02-09T05:58:15.002Z,21.42
2023-02-09T06:01:17.549Z,23.73
2023-02-09T06:07:39.736Z,23.47
2023-02-09T06:10:42.895Z,21.77
2023-02-09T06:13:45.469Z,19.85
2023-02-09T06:16:46.905Z,19.30
2023-02-09T06:19:49.402Z,21.00
2023-02-09T06:22:50.753Z,21.03
2023-02-09T06:25:53.932Z,21.08
2023-02-09T06:28:56.433Z,19.88
2023-02-09T06:31:57.849Z,23.00
2023-02-09T06:35:00.523Z,21.60
2023-02-09T06:38:02.314Z,23.60
2023-02-09T06:41:06.164Z,19.52
2023-02-09T06:44:07.458Z,19.95
2023-02-09T06:47:10.030Z,22.33
2023-02-09T06:50:14.377Z,18.70
2023-02-09T06:53:16.419Z,21.03
2023-02-09T06:56:20.619Z,23.83
2023-02-09T06:59:23.389Z,22.58
2023-02-09T07:02:24.647Z,20.15
2023-02-09T07:05:27.927Z,19.13
2023-02-09T07:08:29.232Z,22.70
2023-02-09T07:11:32.490Z,19.67
2023-02-09T07:14:35.169Z,21.27
2023-02-09T07:17:36.437Z,20.52
2023-02-09T07:20:38.978Z,18.77
2023-02-09T07:23:40.259Z,22.07
2023-02-09T07:26:43.587Z,21.58
2023-02-09T07:29:44.972Z,25.73
2023-02-09T07:32:46.241Z,21.85
2023-02-09T07:35:49.566Z,23.87
2023-02-09T07:38:51.082Z,22.80
2023-02-09T07:41:54.542Z,22.73
2023-02-09T07:44:55.827Z,22.27
2023-02-09T07:47:58.398Z,19.38
2023-02-09T07:51:01.667Z,23.23
2023-02-09T07:54:07.083Z,20.60
2023-02-09T07:57:13.249Z,20.00
2023-02-09T08:00:17.755Z,22.05
2023-02-09T08:03:21.902Z,23.75
2023-02-09T08:06:41.018Z,19.70
2023-02-09T08:09:45.780Z,21.70
2023-02-09T08:13:00.915Z,19.73
2023-02-09T08:16:06.723Z,19.10
2023-02-09T08:19:13.418Z,20.25
2023-02-09T08:22:16.146Z,19.00
2023-02-09T08:25:20.552Z,21.83
2023-02-09T08:28:34.840Z,20.00
2023-02-09T08:31:44.615Z,22.60
2023-02-09T08:34:46.024Z,21.15
2023-02-09T08:37:48.584Z,21.83
2023-02-09T08:40:49.908Z,21.97
2023-02-09T08:43:53.085Z,23.27
2023-02-09T08:46:55.727Z,21.15
2023-02-09T08:49:59.381Z,20.65
2023-02-09T08:53:03.353Z,17.40
2023-02-09T08:56:05.344Z,19.73
2023-02-09T08:59:08.574Z,24.27
2023-02-09T09:02:11.139Z,19.63
2023-02-09T09:05:12.565Z,22.27
2023-02-09T09:08:15.050Z,20.63
2023-02-09T09:11:16.598Z,22.57
2023-02-09T09:14:19.787Z,22.00
2023-02-09T09:17:21.320Z,20.33
2023-02-09T09:20:23.916Z,19.17
2023-02-09T09:23:25.202Z,17.43
2023-02-09T09:26:27.730Z,20.47
2023-02-09T09:29:29.632Z,17.35
2023-02-09T09:32:32.277Z,19.48
2023-02-09T09:35:33.622Z,18.90
2023-02-09T09:38:37.758Z,21.67
2023-02-09T09:41:39.011Z,19.40
2023-02-09T09:44:47.322Z,19.70
2023-02-09T09:47:49.165Z,18.95
2023-02-09T09:50:55.975Z,19.48
2023-02-09T09:53:59.061Z,20.67
2023-02-09T09:57:02.081Z,17.67
2023-02-09T10:00:15.268Z,19.48
2023-02-09T10:03:18.948Z,17.38
2023-02-09T10:06:23.536Z,19.15
2023-02-09T10:09:34.503Z,17.67
2023-02-09T10:12:38.140Z,17.80
2023-02-09T10:15:41.924Z,17.88
2023-02-09T10:18:43.721Z,17.58
2023-02-09T10:21:46.213Z,18.05
2023-02-09T10:24:48.751Z,17.20
2023-02-09T10:27:50.010Z,18.63
2023-02-09T10:30:55.854Z,17.70
2023-02-09T10:34:02.174Z,16.60
2023-02-09T10:37:20.354Z,16.17
2023-02-09T10:40:28.416Z,15.90
2023-02-09T10:43:31.845Z,16.07
2023-02-09T10:46:35.361Z,16.67
2023-02-09T10:49:39.128Z,16.13
2023-02-09T10:52:54.260Z,17.65
2023-02-09T10:56:03.318Z,15.90
2023-02-09T10:59:15.910Z,14.23
2023-02-09T11:02:33.841Z,13.98
2023-02-09T11:05:35.229Z,17.67
2023-02-09T11:08:44.659Z,15.80
2023-02-09T11:11:46.436Z,15.97
2023-02-09T11:14:49.449Z,13.87
2023-02-09T11:17:55.784Z,15.55
2023-02-09T11:21:06.570Z,16.05
2023-02-09T11:24:17.311Z,13.68
2023-02-09T11:27:32.029Z,16.77
2023-02-09T11:30:55.250Z,12.83
2023-02-09T11:34:08.433Z,15.15
2023-02-09T11:40:51.833Z,14.18
2023-02-09T11:43:55.000Z,15.17
2023-02-09T11:47:04.992Z,16.03
2023-02-09T11:50:10.440Z,15.98
2023-02-09T11:53:20.958Z,14.27
2023-02-09T11:56:25.300Z,14.15
2023-02-09T11:59:31.665Z,16.70
2023-02-09T12:02:46.603Z,13.93
2023-02-09T12:05:50.391Z,14.75
2023-02-09T12:09:00.408Z,15.48
2023-02-09T12:12:11.675Z,14.00
2023-02-09T12:15:16.000Z,13.47
2023-02-09T12:18:21.874Z,12.67
2023-02-09T12:21:29.370Z,14.25
2023-02-09T12:24:34.567Z,12.80
2023-02-09T12:27:38.275Z,13.85
2023-02-09T12:31:02.561Z,12.53
2023-02-09T12:34:23.813Z,14.07
2023-02-09T12:37:29.378Z,14.02
2023-02-09T12:40:37.729Z,14.80
2023-02-09T12:43:41.456Z,13.93
2023-02-09T12:46:52.103Z,13.70
2023-02-09T12:50:04.541Z,15.10
2023-02-09T12:53:33.799Z,15.02
2023-02-09T12:56:37.111Z,14.02
2023-02-09T12:59:38.377Z,13.15
2023-02-09T13:02:42.746Z,11.93
2023-02-09T13:05:46.922Z,14.27
2023-02-09T13:08:53.733Z,13.55
2023-02-09T13:12:05.037Z,12.45
2023-02-09T13:15:14.230Z,14.23
2023-02-09T13:18:20.009Z,14.43
2023-02-09T13:21:34.841Z,13.73
2023-02-09T13:24:43.746Z,13.77
2023-02-09T13:27:49.031Z,12.73
2023-02-09T13:30:50.484Z,13.00
2023-02-09T13:33:59.566Z,14.80
2023-02-09T13:37:13.475Z,14.32
2023-02-09T13:40:22.739Z,14.30
2023-02-09T13:43:28.679Z,12.65
2023-02-09T13:46:35.584Z,14.63
2023-02-09T13:49:37.064Z,12.82
2023-02-09T13:52:40.552Z,13.20
2023-02-09T13:59:06.555Z,14.00
2023-02-09T14:02:25.046Z,16.53
2023-02-09T14:05:36.825Z,14.23
2023-02-09T14:08:41.475Z,13.25
2023-02-09T14:11:50.716Z,14.25
2023-02-09T14:15:14.887Z,15.20
2023-02-09T14:18:33.358Z,14.77
2023-02-09T14:21:44.553Z,16.67
2023-02-09T14:24:47.098Z,12.00
2023-02-09T14:27:50.393Z,11.95
2023-02-09T14:30:51.798Z,14.20
2023-02-09T14:33:56.493Z,12.50
2023-02-09T14:37:00.030Z,13.68
2023-02-09T14:40:20.133Z,13.52
2023-02-09T14:43:25.848Z,11.73
2023-02-09T14:46:27.204Z,13.18
2023-02-09T14:49:30.124Z,16.80
2023-02-09T14:52:32.457Z,15.32
2023-02-09T14:55:40.700Z,18.20
2023-02-09T14:58:42.764Z,13.65
2023-02-09T15:01:45.839Z,16.40
2023-02-09T15:04:47.207Z,16.57
2023-02-09T15:07:53.984Z,14.68
2023-02-09T15:14:24.842Z,15.45
2023-02-09T15:17:29.057Z,14.52
2023-02-09T15:20:32.035Z,15.93
2023-02-09T15:23:33.334Z,14.32
2023-02-09T15:26:37.586Z,15.45
2023-02-09T15:29:39.576Z,23.15
2023-02-09T15:36:03.157Z,25.53
2023-02-09T15:39:11.968Z,18.65
2023-02-09T15:42:35.017Z,17.80
2023-02-09T15:45:55.269Z,20.30
2023-02-09T15:48:57.843Z,15.77
2023-02-09T15:52:00.702Z,20.98
2023-02-09T15:55:02.049Z,18.00
2023-02-09T15:58:05.355Z,16.40
2023-02-09T16:01:10.563Z,15.07
2023-02-09T16:04:14.648Z,19.75
2023-02-09T16:07:24.563Z,16.52
2023-02-09T16:10:28.372Z,16.95
2023-02-09T16:13:30.994Z,23.23
2023-02-09T16:16:33.043Z,16.07
2023-02-09T16:19:35.672Z,13.35
2023-02-09T16:22:39.650Z,15.57
2023-02-09T16:25:42.758Z,24.63
2023-02-09T16:28:45.390Z,18.60
2023-02-09T16:31:47.964Z,13.93
2023-02-09T16:34:51.488Z,17.02
2023-02-09T16:37:54.464Z,17.33
2023-02-09T16:40:57.356Z,17.02
2023-02-09T16:43:59.245Z,16.97
2023-02-09T16:47:02.718Z,14.10
2023-02-09T16:50:16.572Z,14.75
2023-02-09T16:53:24.602Z,14.63
2023-02-09T16:56:26.741Z,16.08
2023-02-09T16:59:29.464Z,16.53
2023-02-09T17:02:36.417Z,16.80
2023-02-09T17:09:00.228Z,15.63
2023-02-09T17:12:01.549Z,18.65
2023-02-09T17:15:04.225Z,18.57
2023-02-09T17:18:08.955Z,18.40
2023-02-09T17:21:17.425Z,17.55
2023-02-09T17:24:18.758Z,17.00
2023-02-09T17:27:21.285Z,16.90
2023-02-09T17:30:23.883Z,16.67
2023-02-09T17:33:28.163Z,16.10
2023-02-09T17:36:31.584Z,17.77
2023-02-09T17:39:33.172Z,14.77
2023-02-09T17:42:37.781Z,16.45
2023-02-09T17:45:40.440Z,15.60
2023-02-09T17:48:42.658Z,18.27
2023-02-09T17:55:17.488Z,15.13
2023-02-09T17:58:18.907Z,15.30
2023-02-09T18:01:26.597Z,18.00
2023-02-09T18:04:30.917Z,17.10
2023-02-09T18:07:33.631Z,16.95
2023-02-09T18:10:36.059Z,22.58
2023-02-09T18:13:38.628Z,22.38
2023-02-09T18:16:40.521Z,18.20
2023-02-09T18:19:43.728Z,17.03
2023-02-09T18:22:45.176Z,16.80
2023-02-09T18:25:50.093Z,25.70
2023-02-09T18:28:52.928Z,18.75
2023-02-09T18:31:55.739Z,15.67
2023-02-09T18:34:59.180Z,15.93
2023-02-09T18:38:01.534Z,16.27
2023-02-09T18:41:04.308Z,20.05
2023-02-09T18:44:07.005Z,14.85
2023-02-09T18:47:10.033Z,15.27
2023-02-09T18:50:17.120Z,15.75
2023-02-09T18:53:21.340Z,16.70
2023-02-09T18:56:26.262Z,17.23
2023-02-09T18:59:30.181Z,16.35
2023-02-09T19:02:31.576Z,15.90
2023-02-09T19:05:35.942Z,15.90
2023-02-09T19:08:38.604Z,25.33
2023-02-09T19:11:43.126Z,23.52
2023-02-09T19:14:46.912Z,16.15
2023-02-09T19:17:48.536Z,18.87
2023-02-09T19:20:56.004Z,18.67
2023-02-09T19:23:57.453Z,16.77
2023-02-09T19:30:24.206Z,25.20
2023-02-09T19:33:26.820Z,19.20
2023-02-09T19:36:30.043Z,18.90
2023-02-09T19:39:32.256Z,26.98
2023-02-09T19:42:35.084Z,20.45
2023-02-09T19:45:37.949Z,20.92
2023-02-09T19:48:39.610Z,24.47
2023-02-09T19:51:42.808Z,24.80
2023-02-09T19:54:44.553Z,22.63
2023-02-09T19:57:47.171Z,19.95
2023-02-09T20:00:50.663Z,18.00
2023-02-09T20:03:52.469Z,17.90
2023-02-09T20:06:55.810Z,16.00
2023-02-09T20:09:57.327Z,17.65
2023-02-09T20:12:59.932Z,15.63
2023-02-09T20:16:07.013Z,15.75
2023-02-09T20:19:08.380Z,17.50
2023-02-09T20:22:13.319Z,18.98
2023-02-09T20:25:14.737Z,15.63
2023-02-09T20:28:17.608Z,14.82
2023-02-09T20:31:20.880Z,14.25
2023-02-09T20:34:22.206Z,15.00
2023-02-09T20:37:25.513Z,15.82
2023-02-09T20:40:26.860Z,16.80
2023-02-09T20:43:48.079Z,14.82
2023-02-09T20:46:58.255Z,16.25
2023-02-09T20:50:01.273Z,19.57
2023-02-09T20:53:03.295Z,14.05
2023-02-09T20:56:06.556Z,18.55
2023-02-09T20:59:08.290Z,16.70
2023-02-09T21:02:12.438Z,18.08
2023-02-09T21:05:15.122Z,17.93
2023-02-09T21:08:17.105Z,19.73
2023-02-09T21:11:19.792Z,17.15
2023-02-09T21:14:27.645Z,17.40
2023-02-09T21:21:10.145Z,19.47
2023-02-09T21:24:13.570Z,19.73
2023-02-09T21:27:14.957Z,19.73
2023-02-09T21:33:38.940Z,17.88
2023-02-09T21:36:40.278Z,17.73
2023-02-09T21:39:43.608Z,18.13
2023-02-09T21:42:44.893Z,18.65
2023-02-09T21:45:47.553Z,17.75
2023-02-09T21:48:49.088Z,15.85
2023-02-09T21:51:51.745Z,17.07
2023-02-09T21:54:53.741Z,18.75
2023-02-09T21:57:56.400Z,17.67
2023-02-09T22:00:59.263Z,20.75
2023-02-09T22:04:02.787Z,19.60
2023-02-09T22:07:05.001Z,17.50
2023-02-09T22:10:09.200Z,17.25
2023-02-09T22:13:10.956Z,17.30
2023-02-09T22:16:19.335Z,16.38
2023-02-09T22:19:20.643Z,17.40
2023-02-09T22:22:23.207Z,19.07
2023-02-09T22:25:26.469Z,17.73
2023-02-09T22:28:28.225Z,18.00
2023-02-09T22:31:30.823Z,18.08
2023-02-09T22:34:32.135Z,19.90
2023-02-09T22:37:34.775Z,18.80
2023-02-09T22:40:36.745Z,16.17
2023-02-09T22:43:39.671Z,17.77
2023-02-09T22:46:44.515Z,18.23
2023-02-09T22:49:46.276Z,18.40
2023-02-09T22:56:11.509Z,17.40
2023-02-09T22:59:14.672Z,18.20
2023-02-09T23:02:17.258Z,19.80
2023-02-09T23:05:18.609Z,17.10
2023-02-09T23:08:23.061Z,18.30
2023-02-09T23:11:25.500Z,21.10
2023-02-09T23:14:28.218Z,20.48
2023-02-09T23:17:32.194Z,22.73
2023-02-09T23:20:33.524Z,20.48
2023-02-09T23:23:36.220Z,19.67
2023-02-09T23:26:38.754Z,18.95
2023-02-09T23:29:41.297Z,20.02
2023-02-09T23:32:43.853Z,21.90
2023-02-09T23:35:45.211Z,22.77
2023-02-09T23:38:48.262Z,20.73
2023-02-09T23:41:50.296Z,21.27
2023-02-09T23:44:52.944Z,18.35
2023-02-09T23:47:54.318Z,20.50
2023-02-09T23:50:59.701Z,20.05
2023-02-09T23:54:03.161Z,18.07
2023-02-09T23:57:06.386Z,19.67
